sensor_id;sensor_type;location;lat;lon;timestamp;temperature;humidity
68801;SHT31;55784;50.734;7.086;2023-07-13T00:01:34;17.77;62.13
68801;SHT31;55784;50.734;7.086;2023-07-13T00:04:01;17.74;62.12
68801;SHT31;55784;50.734;7.086;2023-07-13T00:06:26;17.71;62.21
68801;SHT31;55784;50.734;7.086;2023-07-13T00:08:55;17.67;62.40
68801;SHT31;55784;50.734;7.086;2023-07-13T00:11:20;17.63;62.72
68801;SHT31;55784;50.734;7.086;2023-07-13T00:13:45;17.62;62.88
68801;SHT31;55784;50.734;7.086;2023-07-13T00:16:11;17.54;62.99
68801;SHT31;55784;50.734;7.086;2023-07-13T00:18:39;17.51;63.07
68801;SHT31;55784;50.734;7.086;2023-07-13T00:21:04;17.46;63.27
68801;SHT31;55784;50.734;7.086;2023-07-13T00:23:36;17.44;63.61
68801;SHT31;55784;50.734;7.086;2023-07-13T00:26:07;17.46;63.58
68801;SHT31;55784;50.734;7.086;2023-07-13T00:28:33;17.42;63.58
68801;SHT31;55784;50.734;7.086;2023-07-13T00:31:00;17.40;63.70
68801;SHT31;55784;50.734;7.086;2023-07-13T00:33:27;17.37;63.95
68801;SHT31;55784;50.734;7.086;2023-07-13T00:35:54;17.36;63.96
68801;SHT31;55784;50.734;7.086;2023-07-13T00:38:19;17.32;63.86
68801;SHT31;55784;50.734;7.086;2023-07-13T00:40:45;17.29;64.22
68801;SHT31;55784;50.734;7.086;2023-07-13T00:43:16;17.27;64.39
68801;SHT31;55784;50.734;7.086;2023-07-13T00:48:07;17.26;64.47
68801;SHT31;55784;50.734;7.086;2023-07-13T00:50:33;17.26;64.35
68801;SHT31;55784;50.734;7.086;2023-07-13T00:52:58;17.23;64.36
68801;SHT31;55784;50.734;7.086;2023-07-13T00:55:27;17.20;64.38
68801;SHT31;55784;50.734;7.086;2023-07-13T00:57:52;17.18;64.39
68801;SHT31;55784;50.734;7.086;2023-07-13T01:00:19;17.12;64.46
68801;SHT31;55784;50.734;7.086;2023-07-13T01:02:48;17.12;64.89
68801;SHT31;55784;50.734;7.086;2023-07-13T01:05:15;17.09;64.79
68801;SHT31;55784;50.734;7.086;2023-07-13T01:07:42;17.09;65.10
68801;SHT31;55784;50.734;7.086;2023-07-13T01:10:10;17.13;64.67
68801;SHT31;55784;50.734;7.086;2023-07-13T01:12:36;17.10;64.82
68801;SHT31;55784;50.734;7.086;2023-07-13T01:15:02;17.09;64.88
68801;SHT31;55784;50.734;7.086;2023-07-13T01:17:29;17.09;64.95
68801;SHT31;55784;50.734;7.086;2023-07-13T01:19:55;17.06;64.92
68801;SHT31;55784;50.734;7.086;2023-07-13T01:22:20;17.03;65.05
68801;SHT31;55784;50.734;7.086;2023-07-13T01:24:50;17.02;65.30
68801;SHT31;55784;50.734;7.086;2023-07-13T01:27:19;16.98;65.46
68801;SHT31;55784;50.734;7.086;2023-07-13T01:29:45;16.92;65.77
68801;SHT31;55784;50.734;7.086;2023-07-13T01:32:15;16.86;65.94
68801;SHT31;55784;50.734;7.086;2023-07-13T01:34:44;16.83;66.13
68801;SHT31;55784;50.734;7.086;2023-07-13T01:40:55;16.81;66.13
68801;SHT31;55784;50.734;7.086;2023-07-13T01:43:24;16.76;66.55
68801;SHT31;55784;50.734;7.086;2023-07-13T01:46:22;16.69;66.92
68801;SHT31;55784;50.734;7.086;2023-07-13T01:48:59;16.65;67.17
68801;SHT31;55784;50.734;7.086;2023-07-13T01:51:44;16.67;66.99
68801;SHT31;55784;50.734;7.086;2023-07-13T01:54:29;16.65;67.03
68801;SHT31;55784;50.734;7.086;2023-07-13T02:00:03;16.76;66.80
68801;SHT31;55784;50.734;7.086;2023-07-13T02:02:47;16.76;66.66
68801;SHT31;55784;50.734;7.086;2023-07-13T02:07:56;16.73;66.88
68801;SHT31;55784;50.734;7.086;2023-07-13T02:10:34;16.71;67.04
68801;SHT31;55784;50.734;7.086;2023-07-13T02:13:01;16.75;67.00
68801;SHT31;55784;50.734;7.086;2023-07-13T02:15:32;16.76;66.78
68801;SHT31;55784;50.734;7.086;2023-07-13T02:20:42;16.83;66.27
68801;SHT31;55784;50.734;7.086;2023-07-13T02:23:10;16.93;66.00
68801;SHT31;55784;50.734;7.086;2023-07-13T02:25:45;17.02;65.57
68801;SHT31;55784;50.734;7.086;2023-07-13T02:28:16;17.05;65.61
68801;SHT31;55784;50.734;7.086;2023-07-13T02:31:09;17.13;65.80
68801;SHT31;55784;50.734;7.086;2023-07-13T02:33:43;17.12;65.48
68801;SHT31;55784;50.734;7.086;2023-07-13T02:36:11;17.12;65.62
68801;SHT31;55784;50.734;7.086;2023-07-13T02:42:11;17.01;66.05
68801;SHT31;55784;50.734;7.086;2023-07-13T02:44:42;16.98;66.23
68801;SHT31;55784;50.734;7.086;2023-07-13T03:14:12;16.68;66.82
68801;SHT31;55784;50.734;7.086;2023-07-13T03:17:00;16.71;66.52
68801;SHT31;55784;50.734;7.086;2023-07-13T03:19:45;16.75;66.50
68801;SHT31;55784;50.734;7.086;2023-07-13T03:22:29;16.69;66.35
68801;SHT31;55784;50.734;7.086;2023-07-13T03:25:28;16.68;66.26
68801;SHT31;55784;50.734;7.086;2023-07-13T03:28:09;16.69;66.37
68801;SHT31;55784;50.734;7.086;2023-07-13T03:31:05;16.68;66.37
68801;SHT31;55784;50.734;7.086;2023-07-13T03:33:42;16.69;66.34
68801;SHT31;55784;50.734;7.086;2023-07-13T03:36:27;16.76;66.14
68801;SHT31;55784;50.734;7.086;2023-07-13T03:39:02;16.78;66.03
68801;SHT31;55784;50.734;7.086;2023-07-13T03:41:33;16.78;65.84
68801;SHT31;55784;50.734;7.086;2023-07-13T03:44:04;16.86;65.86
68801;SHT31;55784;50.734;7.086;2023-07-13T03:46:42;16.93;65.76
68801;SHT31;55784;50.734;7.086;2023-07-13T03:49:32;17.01;65.45
68801;SHT31;55784;50.734;7.086;2023-07-13T03:52:06;17.06;65.52
68801;SHT31;55784;50.734;7.086;2023-07-13T03:54:48;17.12;65.17
68801;SHT31;55784;50.734;7.086;2023-07-13T03:57:57;17.23;65.93
68801;SHT31;55784;50.734;7.086;2023-07-13T04:00:32;17.32;65.13
68801;SHT31;55784;50.734;7.086;2023-07-13T04:03:06;17.40;65.26
68801;SHT31;55784;50.734;7.086;2023-07-13T04:05:35;17.34;65.15
68801;SHT31;55784;50.734;7.086;2023-07-13T04:08:21;17.30;65.16
68801;SHT31;55784;50.734;7.086;2023-07-13T04:11:07;17.30;65.16
68801;SHT31;55784;50.734;7.086;2023-07-13T04:14:03;17.24;65.41
68801;SHT31;55784;50.734;7.086;2023-07-13T04:16:36;17.23;65.64
68801;SHT31;55784;50.734;7.086;2023-07-13T04:19:34;17.67;64.89
68801;SHT31;55784;50.734;7.086;2023-07-13T04:22:03;18.29;63.30
68801;SHT31;55784;50.734;7.086;2023-07-13T04:24:32;19.00;61.46
68801;SHT31;55784;50.734;7.086;2023-07-13T04:26:58;19.41;60.66
68801;SHT31;55784;50.734;7.086;2023-07-13T04:29:24;19.99;58.87
68801;SHT31;55784;50.734;7.086;2023-07-13T04:31:56;20.39;57.57
68801;SHT31;55784;50.734;7.086;2023-07-13T04:34:32;20.84;56.69
68801;SHT31;55784;50.734;7.086;2023-07-13T04:37:01;21.23;55.64
68801;SHT31;55784;50.734;7.086;2023-07-13T04:39:32;21.44;55.34
68801;SHT31;55784;50.734;7.086;2023-07-13T04:42:22;21.59;54.69
68801;SHT31;55784;50.734;7.086;2023-07-13T04:44:57;21.48;55.09
68801;SHT31;55784;50.734;7.086;2023-07-13T04:47:52;21.61;55.05
68801;SHT31;55784;50.734;7.086;2023-07-13T04:50:36;22.06;54.28
68801;SHT31;55784;50.734;7.086;2023-07-13T04:53:34;22.13;53.89
68801;SHT31;55784;50.734;7.086;2023-07-13T04:56:08;22.19;54.42
68801;SHT31;55784;50.734;7.086;2023-07-13T04:58:57;22.37;53.56
68801;SHT31;55784;50.734;7.086;2023-07-13T05:01:31;22.64;53.07
68801;SHT31;55784;50.734;7.086;2023-07-13T05:04:08;22.73;52.81
68801;SHT31;55784;50.734;7.086;2023-07-13T05:06:45;22.92;52.65
68801;SHT31;55784;50.734;7.086;2023-07-13T05:09:12;22.92;52.56
68801;SHT31;55784;50.734;7.086;2023-07-13T05:11:40;23.15;52.09
68801;SHT31;55784;50.734;7.086;2023-07-13T05:14:06;23.51;51.93
68801;SHT31;55784;50.734;7.086;2023-07-13T05:16:42;22.84;52.32
68801;SHT31;55784;50.734;7.086;2023-07-13T05:19:34;23.83;51.13
68801;SHT31;55784;50.734;7.086;2023-07-13T05:22:28;24.14;50.29
68801;SHT31;55784;50.734;7.086;2023-07-13T05:25:12;24.17;50.41
68801;SHT31;55784;50.734;7.086;2023-07-13T05:28:01;24.34;49.99
68801;SHT31;55784;50.734;7.086;2023-07-13T05:30:57;24.77;49.46
68801;SHT31;55784;50.734;7.086;2023-07-13T05:33:27;24.84;49.09
68801;SHT31;55784;50.734;7.086;2023-07-13T05:36:18;24.63;49.22
68801;SHT31;55784;50.734;7.086;2023-07-13T05:39:16;25.16;48.35
68801;SHT31;55784;50.734;7.086;2023-07-13T05:42:27;24.87;49.04
68801;SHT31;55784;50.734;7.086;2023-07-13T05:45:22;24.99;48.61
68801;SHT31;55784;50.734;7.086;2023-07-13T05:47:47;24.71;49.57
68801;SHT31;55784;50.734;7.086;2023-07-13T05:50:13;24.48;50.21
68801;SHT31;55784;50.734;7.086;2023-07-13T05:52:38;24.34;50.44
68801;SHT31;55784;50.734;7.086;2023-07-13T05:55:04;24.88;49.60
68801;SHT31;55784;50.734;7.086;2023-07-13T05:57:30;24.65;49.94
68801;SHT31;55784;50.734;7.086;2023-07-13T05:59:55;24.50;50.17
68801;SHT31;55784;50.734;7.086;2023-07-13T06:02:21;24.67;50.18
68801;SHT31;55784;50.734;7.086;2023-07-13T06:04:46;24.94;49.44
68801;SHT31;55784;50.734;7.086;2023-07-13T06:07:11;25.15;49.10
68801;SHT31;55784;50.734;7.086;2023-07-13T06:09:37;25.69;48.30
68801;SHT31;55784;50.734;7.086;2023-07-13T06:12:03;25.59;48.21
68801;SHT31;55784;50.734;7.086;2023-07-13T06:14:29;25.16;48.78
68801;SHT31;55784;50.734;7.086;2023-07-13T06:16:57;24.71;49.88
68801;SHT31;55784;50.734;7.086;2023-07-13T06:19:29;24.24;51.04
68801;SHT31;55784;50.734;7.086;2023-07-13T06:21:54;24.16;51.13
68801;SHT31;55784;50.734;7.086;2023-07-13T06:24:19;23.99;51.92
68801;SHT31;55784;50.734;7.086;2023-07-13T06:26:48;23.96;51.52
68801;SHT31;55784;50.734;7.086;2023-07-13T06:29:13;23.97;51.76
68801;SHT31;55784;50.734;7.086;2023-07-13T06:31:38;23.44;52.38
68801;SHT31;55784;50.734;7.086;2023-07-13T06:34:04;22.83;54.11
68801;SHT31;55784;50.734;7.086;2023-07-13T06:36:29;22.57;54.47
68801;SHT31;55784;50.734;7.086;2023-07-13T06:38:54;21.89;55.79
68801;SHT31;55784;50.734;7.086;2023-07-13T06:41:19;21.45;56.95
68801;SHT31;55784;50.734;7.086;2023-07-13T06:43:47;21.86;56.31
68801;SHT31;55784;50.734;7.086;2023-07-13T06:46:12;21.77;56.43
68801;SHT31;55784;50.734;7.086;2023-07-13T06:48:37;21.71;56.37
68801;SHT31;55784;50.734;7.086;2023-07-13T06:51:03;22.23;55.29
68801;SHT31;55784;50.734;7.086;2023-07-13T06:53:28;22.35;54.83
68801;SHT31;55784;50.734;7.086;2023-07-13T06:55:53;22.53;54.55
68801;SHT31;55784;50.734;7.086;2023-07-13T06:58:19;22.47;54.93
68801;SHT31;55784;50.734;7.086;2023-07-13T07:00:45;22.70;54.21
68801;SHT31;55784;50.734;7.086;2023-07-13T07:03:11;22.70;54.06
68801;SHT31;55784;50.734;7.086;2023-07-13T07:05:36;22.83;53.99
68801;SHT31;55784;50.734;7.086;2023-07-13T07:08:02;22.87;53.93
68801;SHT31;55784;50.734;7.086;2023-07-13T07:10:29;22.87;53.79
68801;SHT31;55784;50.734;7.086;2023-07-13T07:12:55;22.21;55.46
68801;SHT31;55784;50.734;7.086;2023-07-13T07:15:20;22.08;56.26
68801;SHT31;55784;50.734;7.086;2023-07-13T07:17:45;22.20;55.72
68801;SHT31;55784;50.734;7.086;2023-07-13T07:20:11;22.24;55.60
68801;SHT31;55784;50.734;7.086;2023-07-13T07:22:37;21.61;57.04
68801;SHT31;55784;50.734;7.086;2023-07-13T07:25:02;21.83;56.88
68801;SHT31;55784;50.734;7.086;2023-07-13T07:27:28;21.89;56.73
68801;SHT31;55784;50.734;7.086;2023-07-13T07:29:53;21.83;56.75
68801;SHT31;55784;50.734;7.086;2023-07-13T07:32:19;21.90;56.94
68801;SHT31;55784;50.734;7.086;2023-07-13T07:34:45;21.78;57.52
68801;SHT31;55784;50.734;7.086;2023-07-13T07:37:12;21.83;57.38
68801;SHT31;55784;50.734;7.086;2023-07-13T07:39:38;21.78;57.31
68801;SHT31;55784;50.734;7.086;2023-07-13T07:42:04;21.75;57.42
68801;SHT31;55784;50.734;7.086;2023-07-13T07:44:31;21.93;57.05
68801;SHT31;55784;50.734;7.086;2023-07-13T07:46:56;21.58;57.82
68801;SHT31;55784;50.734;7.086;2023-07-13T07:49:22;21.62;57.95
68801;SHT31;55784;50.734;7.086;2023-07-13T07:51:47;21.61;58.07
68801;SHT31;55784;50.734;7.086;2023-07-13T07:54:13;21.62;58.40
68801;SHT31;55784;50.734;7.086;2023-07-13T07:56:38;21.58;58.55
68801;SHT31;55784;50.734;7.086;2023-07-13T07:59:03;21.55;58.38
68801;SHT31;55784;50.734;7.086;2023-07-13T08:01:29;21.61;58.00
68801;SHT31;55784;50.734;7.086;2023-07-13T08:03:54;21.90;57.65
68801;SHT31;55784;50.734;7.086;2023-07-13T08:06:20;21.83;56.97
68801;SHT31;55784;50.734;7.086;2023-07-13T08:08:47;21.78;57.44
68801;SHT31;55784;50.734;7.086;2023-07-13T08:11:13;22.05;56.77
68801;SHT31;55784;50.734;7.086;2023-07-13T08:13:38;22.16;56.65
68801;SHT31;55784;50.734;7.086;2023-07-13T08:16:04;22.12;56.82
68801;SHT31;55784;50.734;7.086;2023-07-13T08:18:30;22.29;56.68
68801;SHT31;55784;50.734;7.086;2023-07-13T08:20:56;22.33;56.58
68801;SHT31;55784;50.734;7.086;2023-07-13T08:23:22;22.80;55.32
68801;SHT31;55784;50.734;7.086;2023-07-13T08:25:54;22.49;55.73
68801;SHT31;55784;50.734;7.086;2023-07-13T08:28:21;22.50;55.36
68801;SHT31;55784;50.734;7.086;2023-07-13T08:30:47;22.71;55.78
68801;SHT31;55784;50.734;7.086;2023-07-13T08:33:15;22.70;55.34
68801;SHT31;55784;50.734;7.086;2023-07-13T08:35:41;23.39;53.51
68801;SHT31;55784;50.734;7.086;2023-07-13T08:38:06;23.79;52.36
68801;SHT31;55784;50.734;7.086;2023-07-13T08:40:33;23.80;52.37
68801;SHT31;55784;50.734;7.086;2023-07-13T08:42:59;24.17;50.88
68801;SHT31;55784;50.734;7.086;2023-07-13T08:45:44;23.55;52.59
68801;SHT31;55784;50.734;7.086;2023-07-13T08:48:18;23.76;51.93
68801;SHT31;55784;50.734;7.086;2023-07-13T08:51:02;24.24;51.20
68801;SHT31;55784;50.734;7.086;2023-07-13T08:53:35;24.46;50.47
68801;SHT31;55784;50.734;7.086;2023-07-13T08:56:02;24.33;50.84
68801;SHT31;55784;50.734;7.086;2023-07-13T08:58:28;23.97;51.01
68801;SHT31;55784;50.734;7.086;2023-07-13T09:06:42;23.46;51.54
68801;SHT31;55784;50.734;7.086;2023-07-13T09:09:41;23.37;51.42
68801;SHT31;55784;50.734;7.086;2023-07-13T09:14:57;23.92;50.64
68801;SHT31;55784;50.734;7.086;2023-07-13T09:17:27;23.82;50.22
68801;SHT31;55784;50.734;7.086;2023-07-13T09:20:00;23.85;50.21
68801;SHT31;55784;50.734;7.086;2023-07-13T09:22:31;23.63;50.37
68801;SHT31;55784;50.734;7.086;2023-07-13T09:25:06;23.49;51.06
68801;SHT31;55784;50.734;7.086;2023-07-13T09:27:42;23.52;51.32
68801;SHT31;55784;50.734;7.086;2023-07-13T09:32:41;23.66;51.18
68801;SHT31;55784;50.734;7.086;2023-07-13T09:35:12;23.63;51.02
68801;SHT31;55784;50.734;7.086;2023-07-13T09:37:40;23.59;50.64
68801;SHT31;55784;50.734;7.086;2023-07-13T09:40:17;23.46;51.24
68801;SHT31;55784;50.734;7.086;2023-07-13T09:42:44;23.51;50.51
68801;SHT31;55784;50.734;7.086;2023-07-13T09:45:09;23.63;50.36
68801;SHT31;55784;50.734;7.086;2023-07-13T09:47:39;23.85;50.71
68801;SHT31;55784;50.734;7.086;2023-07-13T09:50:15;23.95;50.16
68801;SHT31;55784;50.734;7.086;2023-07-13T09:52:46;23.95;50.72
68801;SHT31;55784;50.734;7.086;2023-07-13T09:55:32;24.21;50.01
68801;SHT31;55784;50.734;7.086;2023-07-13T09:58:22;24.07;51.41
68801;SHT31;55784;50.734;7.086;2023-07-13T10:00:59;24.51;51.42
68801;SHT31;55784;50.734;7.086;2023-07-13T10:03:29;24.33;51.14
68801;SHT31;55784;50.734;7.086;2023-07-13T10:06:06;24.84;49.65
68801;SHT31;55784;50.734;7.086;2023-07-13T10:08:35;25.26;48.89
68801;SHT31;55784;50.734;7.086;2023-07-13T10:11:12;25.19;47.36
68801;SHT31;55784;50.734;7.086;2023-07-13T10:13:46;24.99;48.63
68801;SHT31;55784;50.734;7.086;2023-07-13T10:16:14;25.42;47.81
68801;SHT31;55784;50.734;7.086;2023-07-13T10:18:46;23.90;52.10
68801;SHT31;55784;50.734;7.086;2023-07-13T10:21:23;23.69;53.60
68801;SHT31;55784;50.734;7.086;2023-07-13T10:24:05;23.62;54.05
68801;SHT31;55784;50.734;7.086;2023-07-13T10:26:50;23.19;54.81
68801;SHT31;55784;50.734;7.086;2023-07-13T10:29:16;23.15;55.06
68801;SHT31;55784;50.734;7.086;2023-07-13T10:31:44;23.08;55.38
68801;SHT31;55784;50.734;7.086;2023-07-13T10:34:11;23.72;54.48
68801;SHT31;55784;50.734;7.086;2023-07-13T10:36:42;24.38;51.87
68801;SHT31;55784;50.734;7.086;2023-07-13T10:39:21;25.11;49.34
68801;SHT31;55784;50.734;7.086;2023-07-13T10:41:55;24.99;48.48
68801;SHT31;55784;50.734;7.086;2023-07-13T10:44:27;24.89;48.14
68801;SHT31;55784;50.734;7.086;2023-07-13T10:47:14;24.85;45.96
68801;SHT31;55784;50.734;7.086;2023-07-13T10:49:40;24.87;46.20
68801;SHT31;55784;50.734;7.086;2023-07-13T10:52:42;25.04;45.40
68801;SHT31;55784;50.734;7.086;2023-07-13T10:58:15;24.89;47.08
68801;SHT31;55784;50.734;7.086;2023-07-13T11:03:28;25.42;45.13
68801;SHT31;55784;50.734;7.086;2023-07-13T11:06:09;24.89;44.59
68801;SHT31;55784;50.734;7.086;2023-07-13T11:08:52;24.95;45.38
68801;SHT31;55784;50.734;7.086;2023-07-13T11:11:38;25.26;44.19
68801;SHT31;55784;50.734;7.086;2023-07-13T11:14:25;25.02;44.67
68801;SHT31;55784;50.734;7.086;2023-07-13T11:16:50;25.73;43.95
68801;SHT31;55784;50.734;7.086;2023-07-13T11:25:13;25.65;44.48
68801;SHT31;55784;50.734;7.086;2023-07-13T11:36:44;25.45;44.75
68801;SHT31;55784;50.734;7.086;2023-07-13T11:39:29;25.26;45.09
68801;SHT31;55784;50.734;7.086;2023-07-13T11:42:10;25.02;44.34
68801;SHT31;55784;50.734;7.086;2023-07-13T11:44:42;25.18;43.90
68801;SHT31;55784;50.734;7.086;2023-07-13T11:47:10;25.35;44.11
68801;SHT31;55784;50.734;7.086;2023-07-13T11:49:44;25.42;44.26
68801;SHT31;55784;50.734;7.086;2023-07-13T11:52:15;25.65;43.31
68801;SHT31;55784;50.734;7.086;2023-07-13T11:54:52;25.39;43.33
68801;SHT31;55784;50.734;7.086;2023-07-13T11:59:49;25.40;43.68
68801;SHT31;55784;50.734;7.086;2023-07-13T12:02:21;25.50;43.56
68801;SHT31;55784;50.734;7.086;2023-07-13T12:04:50;25.11;43.66
68801;SHT31;55784;50.734;7.086;2023-07-13T12:07:19;24.99;44.05
68801;SHT31;55784;50.734;7.086;2023-07-13T12:09:45;25.01;44.38
68801;SHT31;55784;50.734;7.086;2023-07-13T12:12:16;25.20;44.29
68801;SHT31;55784;50.734;7.086;2023-07-13T12:14:42;25.25;44.60
68801;SHT31;55784;50.734;7.086;2023-07-13T12:17:15;25.47;44.47
68801;SHT31;55784;50.734;7.086;2023-07-13T12:19:41;25.79;43.87
68801;SHT31;55784;50.734;7.086;2023-07-13T12:22:09;26.18;43.25
68801;SHT31;55784;50.734;7.086;2023-07-13T12:24:37;26.10;43.56
68801;SHT31;55784;50.734;7.086;2023-07-13T12:27:04;26.05;43.82
68801;SHT31;55784;50.734;7.086;2023-07-13T12:29:32;25.23;45.71
68801;SHT31;55784;50.734;7.086;2023-07-13T12:31:57;24.44;48.25
68801;SHT31;55784;50.734;7.086;2023-07-13T12:34:25;24.21;49.44
68801;SHT31;55784;50.734;7.086;2023-07-13T12:36:56;24.23;49.78
68801;SHT31;55784;50.734;7.086;2023-07-13T12:39:47;24.43;49.74
68801;SHT31;55784;50.734;7.086;2023-07-13T12:42:22;24.78;48.35
68801;SHT31;55784;50.734;7.086;2023-07-13T12:44:57;24.41;48.26
68801;SHT31;55784;50.734;7.086;2023-07-13T12:47:24;24.69;47.34
68801;SHT31;55784;50.734;7.086;2023-07-13T12:49:59;25.01;47.46
68801;SHT31;55784;50.734;7.086;2023-07-13T12:52:30;25.18;46.88
68801;SHT31;55784;50.734;7.086;2023-07-13T12:55:07;25.30;45.91
68801;SHT31;55784;50.734;7.086;2023-07-13T12:57:54;25.23;46.64
68801;SHT31;55784;50.734;7.086;2023-07-13T13:00:32;25.70;46.02
68801;SHT31;55784;50.734;7.086;2023-07-13T13:03:02;26.01;45.68
68801;SHT31;55784;50.734;7.086;2023-07-13T13:05:29;25.45;45.09
68801;SHT31;55784;50.734;7.086;2023-07-13T13:07:55;25.45;45.07
68801;SHT31;55784;50.734;7.086;2023-07-13T13:10:20;25.77;44.76
68801;SHT31;55784;50.734;7.086;2023-07-13T13:12:46;26.20;42.19
68801;SHT31;55784;50.734;7.086;2023-07-13T13:15:13;25.98;42.60
68801;SHT31;55784;50.734;7.086;2023-07-13T13:17:39;25.84;43.14
68801;SHT31;55784;50.734;7.086;2023-07-13T13:20:14;26.01;43.39
68801;SHT31;55784;50.734;7.086;2023-07-13T13:22:41;26.11;42.80
68801;SHT31;55784;50.734;7.086;2023-07-13T13:25:10;25.94;43.61
68801;SHT31;55784;50.734;7.086;2023-07-13T13:27:35;26.38;42.92
68801;SHT31;55784;50.734;7.086;2023-07-13T13:30:02;26.18;43.08
68801;SHT31;55784;50.734;7.086;2023-07-13T13:32:27;26.72;42.40
68801;SHT31;55784;50.734;7.086;2023-07-13T13:34:53;26.61;42.97
68801;SHT31;55784;50.734;7.086;2023-07-13T13:39:46;26.84;43.13
68801;SHT31;55784;50.734;7.086;2023-07-13T13:42:12;26.51;44.36
68801;SHT31;55784;50.734;7.086;2023-07-13T13:44:38;26.56;44.31
68801;SHT31;55784;50.734;7.086;2023-07-13T13:47:03;26.37;44.04
68801;SHT31;55784;50.734;7.086;2023-07-13T13:49:30;26.65;44.03
68801;SHT31;55784;50.734;7.086;2023-07-13T13:51:56;26.59;42.37
68801;SHT31;55784;50.734;7.086;2023-07-13T13:54:23;26.82;41.73
68801;SHT31;55784;50.734;7.086;2023-07-13T13:56:51;26.84;42.10
68801;SHT31;55784;50.734;7.086;2023-07-13T13:59:17;26.45;42.62
68801;SHT31;55784;50.734;7.086;2023-07-13T14:01:44;26.84;42.09
68801;SHT31;55784;50.734;7.086;2023-07-13T14:04:15;27.00;42.04
68801;SHT31;55784;50.734;7.086;2023-07-13T14:06:42;26.94;41.76
68801;SHT31;55784;50.734;7.086;2023-07-13T14:09:11;27.22;41.63
68801;SHT31;55784;50.734;7.086;2023-07-13T14:11:36;26.85;42.71
68801;SHT31;55784;50.734;7.086;2023-07-13T14:14:02;26.75;42.03
68801;SHT31;55784;50.734;7.086;2023-07-13T14:16:31;26.47;42.50
68801;SHT31;55784;50.734;7.086;2023-07-13T14:18:58;26.56;42.59
68801;SHT31;55784;50.734;7.086;2023-07-13T14:21:26;26.07;43.81
68801;SHT31;55784;50.734;7.086;2023-07-13T14:23:52;26.17;43.14
68801;SHT31;55784;50.734;7.086;2023-07-13T14:26:22;26.20;42.67
68801;SHT31;55784;50.734;7.086;2023-07-13T14:28:53;26.05;41.86
68801;SHT31;55784;50.734;7.086;2023-07-13T14:31:21;26.33;41.04
68801;SHT31;55784;50.734;7.086;2023-07-13T14:33:47;26.62;41.22
68801;SHT31;55784;50.734;7.086;2023-07-13T14:36:28;26.52;42.13
68801;SHT31;55784;50.734;7.086;2023-07-13T14:38:55;26.65;42.51
68801;SHT31;55784;50.734;7.086;2023-07-13T14:41:21;26.96;41.77
68801;SHT31;55784;50.734;7.086;2023-07-13T14:43:46;26.89;41.85
68801;SHT31;55784;50.734;7.086;2023-07-13T14:46:32;26.76;42.42
68801;SHT31;55784;50.734;7.086;2023-07-13T14:49:15;26.91;42.20
68801;SHT31;55784;50.734;7.086;2023-07-13T14:51:41;26.95;41.27
68801;SHT31;55784;50.734;7.086;2023-07-13T14:54:09;26.49;42.64
68801;SHT31;55784;50.734;7.086;2023-07-13T14:56:35;26.67;42.25
68801;SHT31;55784;50.734;7.086;2023-07-13T14:59:00;26.76;42.18
68801;SHT31;55784;50.734;7.086;2023-07-13T15:01:26;26.67;42.43
68801;SHT31;55784;50.734;7.086;2023-07-13T15:03:52;26.71;42.46
68801;SHT31;55784;50.734;7.086;2023-07-13T15:06:19;26.27;42.99
68801;SHT31;55784;50.734;7.086;2023-07-13T15:08:48;25.90;43.38
68801;SHT31;55784;50.734;7.086;2023-07-13T15:11:13;26.20;43.68
68801;SHT31;55784;50.734;7.086;2023-07-13T15:13:40;26.40;42.75
68801;SHT31;55784;50.734;7.086;2023-07-13T15:16:18;25.97;42.23
68801;SHT31;55784;50.734;7.086;2023-07-13T15:18:50;25.98;42.57
68801;SHT31;55784;50.734;7.086;2023-07-13T15:21:23;26.23;41.61
68801;SHT31;55784;50.734;7.086;2023-07-13T15:23:50;26.61;41.04
68801;SHT31;55784;50.734;7.086;2023-07-13T15:26:17;26.61;41.52
68801;SHT31;55784;50.734;7.086;2023-07-13T15:28:47;26.54;41.98
68801;SHT31;55784;50.734;7.086;2023-07-13T15:31:20;26.59;41.38
68801;SHT31;55784;50.734;7.086;2023-07-13T15:33:46;26.68;41.43
68801;SHT31;55784;50.734;7.086;2023-07-13T15:36:13;26.54;41.20
68801;SHT31;55784;50.734;7.086;2023-07-13T15:38:39;26.24;42.12
68801;SHT31;55784;50.734;7.086;2023-07-13T15:41:32;25.83;42.79
68801;SHT31;55784;50.734;7.086;2023-07-13T15:43:58;25.67;43.20
68801;SHT31;55784;50.734;7.086;2023-07-13T15:46:26;25.90;43.39
68801;SHT31;55784;50.734;7.086;2023-07-13T15:48:52;26.25;42.95
68801;SHT31;55784;50.734;7.086;2023-07-13T15:51:27;26.28;42.74
68801;SHT31;55784;50.734;7.086;2023-07-13T15:53:54;26.28;43.19
68801;SHT31;55784;50.734;7.086;2023-07-13T15:56:28;25.40;43.98
68801;SHT31;55784;50.734;7.086;2023-07-13T15:58:55;25.36;44.35
68801;SHT31;55784;50.734;7.086;2023-07-13T16:01:24;25.38;44.71
68801;SHT31;55784;50.734;7.086;2023-07-13T16:03:51;25.30;44.93
68801;SHT31;55784;50.734;7.086;2023-07-13T16:06:23;25.11;45.19
68801;SHT31;55784;50.734;7.086;2023-07-13T16:08:50;25.04;45.36
68801;SHT31;55784;50.734;7.086;2023-07-13T16:11:20;25.25;45.37
68801;SHT31;55784;50.734;7.086;2023-07-13T16:13:47;25.33;45.19
68801;SHT31;55784;50.734;7.086;2023-07-13T16:16:13;25.23;45.22
68801;SHT31;55784;50.734;7.086;2023-07-13T16:18:40;25.49;45.01
68801;SHT31;55784;50.734;7.086;2023-07-13T16:21:14;25.23;45.46
68801;SHT31;55784;50.734;7.086;2023-07-13T16:23:42;25.20;45.68
68801;SHT31;55784;50.734;7.086;2023-07-13T16:26:22;25.16;45.85
68801;SHT31;55784;50.734;7.086;2023-07-13T16:28:49;25.11;46.06
68801;SHT31;55784;50.734;7.086;2023-07-13T16:31:14;24.95;46.65
68801;SHT31;55784;50.734;7.086;2023-07-13T16:33:39;24.85;46.85
68801;SHT31;55784;50.734;7.086;2023-07-13T16:36:10;24.50;47.70
68801;SHT31;55784;50.734;7.086;2023-07-13T16:38:36;24.51;47.94
68801;SHT31;55784;50.734;7.086;2023-07-13T16:41:01;24.38;49.14
68801;SHT31;55784;50.734;7.086;2023-07-13T16:43:27;23.95;51.11
68801;SHT31;55784;50.734;7.086;2023-07-13T16:45:53;23.80;51.59
68801;SHT31;55784;50.734;7.086;2023-07-13T16:48:28;23.46;52.66
68801;SHT31;55784;50.734;7.086;2023-07-13T16:50:56;23.48;53.14
68801;SHT31;55784;50.734;7.086;2023-07-13T16:53:26;23.48;53.21
68801;SHT31;55784;50.734;7.086;2023-07-13T16:55:53;23.56;53.41
68801;SHT31;55784;50.734;7.086;2023-07-13T16:58:21;23.48;53.67
68801;SHT31;55784;50.734;7.086;2023-07-13T17:00:50;23.62;53.68
68801;SHT31;55784;50.734;7.086;2023-07-13T17:03:18;23.44;54.01
68801;SHT31;55784;50.734;7.086;2023-07-13T17:05:44;23.37;54.20
68801;SHT31;55784;50.734;7.086;2023-07-13T17:08:27;23.45;54.11
68801;SHT31;55784;50.734;7.086;2023-07-13T17:10:56;23.19;54.43
68801;SHT31;55784;50.734;7.086;2023-07-13T17:13:23;23.18;54.36
68801;SHT31;55784;50.734;7.086;2023-07-13T17:15:51;23.22;54.53
68801;SHT31;55784;50.734;7.086;2023-07-13T17:18:31;23.10;54.89